Time;durP1;ratioP1;P1;durP2;ratioP2;P2;SDS_P1;SDS_P2;PMS_P1;PMS_P2;Temp;Humidity;BMP_temperature;BMP_pressure;BME280_temperature;BME280_humidity;BME280_pressure;Samples;Min_cycle;Max_cycle;Signal;HPM_P1;HPM_P2
2024/03/26 00:05:45;;;;;;;60.90;30.80;;;;;;;0.82;100.00;98239.80;270842;1266;23043;-88
2024/03/26 00:11:47;;;;;;;57.90;30.00;;;;;;;0.70;100.00;98237.57;273192;1266;22268;-88
2024/03/26 00:17:52;;;;;;;59.10;28.60;;;;;;;0.69;100.00;98236.64;272127;1266;25345;-89
2024/03/26 00:23:54;;;;;;;60.20;29.80;;;;;;;0.67;100.00;98240.00;271166;1266;23754;-88
2024/03/26 00:29:56;;;;;;;49.70;26.90;;;;;;;0.61;100.00;98245.84;272241;1267;22377;-87
2024/03/26 00:35:58;;;;;;;56.40;28.80;;;;;;;0.54;100.00;98242.31;273213;1266;22459;-88
2024/03/26 00:41:59;;;;;;;53.10;28.50;;;;;;;0.46;100.00;98237.14;272899;1266;162403;-89
2024/03/26 00:48:02;;;;;;;55.80;28.00;;;;;;;0.39;100.00;98246.02;273468;1266;22479;-87
2024/03/26 00:54:03;;;;;;;58.70;27.00;;;;;;;0.33;100.00;98242.16;273145;1266;22414;-87
2024/03/26 01:00:10;;;;;;;50.70;25.40;;;;;;;0.24;100.00;98247.06;271751;1266;22522;-88
2024/03/26 01:06:13;;;;;;;53.60;29.40;;;;;;;0.13;100.00;98246.62;273267;1266;23522;-89
2024/03/26 01:12:15;;;;;;;61.60;33.80;;;;;;;0.07;100.00;98252.68;273363;1266;22441;-88
2024/03/26 01:18:17;;;;;;;43.70;24.40;;;;;;;0.02;100.00;98253.50;273367;1266;22512;-87
2024/03/26 01:24:18;;;;;;;51.40;26.30;;;;;;;-0.11;100.00;98261.12;273282;1266;22462;-86
2024/03/26 01:30:20;;;;;;;47.60;26.80;;;;;;;-0.18;100.00;98257.96;273212;1259;23660;-86
2024/03/26 01:36:22;;;;;;;51.70;25.40;;;;;;;-0.22;100.00;98258.04;272238;1266;23432;-86
2024/03/26 01:42:24;;;;;;;45.50;25.10;;;;;;;-0.23;100.00;98265.92;273309;1266;22254;-87
2024/03/26 01:48:26;;;;;;;45.90;24.70;;;;;;;-0.27;100.00;98264.96;272340;1266;23087;-87
2024/03/26 01:54:29;;;;;;;59.40;29.40;;;;;;;-0.36;100.00;98263.81;273052;1266;22769;-87
2024/03/26 02:00:30;;;;;;;46.80;24.80;;;;;;;-0.42;100.00;98264.43;273187;1266;23160;-86
2024/03/26 02:06:32;;;;;;;50.60;27.70;;;;;;;-0.48;100.00;98266.73;271224;1269;23944;-86
2024/03/26 02:12:34;;;;;;;50.10;26.80;;;;;;;-0.54;100.00;98265.92;272681;1269;22480;-86
2024/03/26 02:18:35;;;;;;;51.90;28.30;;;;;;;-0.61;100.00;98263.06;273078;1269;23479;-86
2024/03/26 02:24:37;;;;;;;41.30;23.40;;;;;;;-0.68;100.00;98259.02;273050;1259;22506;-87
2024/03/26 02:30:39;;;;;;;35.70;19.90;;;;;;;-0.70;100.00;98260.29;273263;1268;22279;-85
2024/03/26 02:37:33;;;;;;;38.90;23.40;;;;;;;-0.71;100.00;98257.10;273450;1268;22239;-86
2024/03/26 02:43:36;;;;;;;43.80;22.80;;;;;;;-0.73;100.00;98260.77;273413;1269;22992;-85
2024/03/26 02:49:39;;;;;;;37.80;20.60;;;;;;;-0.79;100.00;98256.61;273233;1269;22531;-86
2024/03/26 02:55:41;;;;;;;38.30;20.50;;;;;;;-0.86;100.00;98261.08;273326;1269;23762;-85
2024/03/26 03:01:42;;;;;;;48.40;23.50;;;;;;;-0.89;100.00;98262.80;271825;1269;22348;-86
2024/03/26 03:07:44;;;;;;;42.10;22.20;;;;;;;-0.95;100.00;98264.98;272064;1269;23163;-84
2024/03/26 03:14:06;;;;;;;41.20;21.10;;;;;;;-1.03;100.00;98262.23;272472;1269;23652;-84
2024/03/26 03:20:11;;;;;;;36.80;20.10;;;;;;;-1.06;100.00;98256.73;273999;1273;22254;-85
2024/03/26 03:26:38;;;;;;;51.80;26.80;;;;;;;-1.13;100.00;98260.09;273879;1273;22966;-85
2024/03/26 03:33:00;;;;;;;34.30;20.30;;;;;;;-1.17;100.00;98254.88;273867;1270;22390;-83
2024/03/26 03:39:34;;;;;;;40.20;19.90;;;;;;;-1.22;100.00;98257.33;273671;1269;22302;-85
2024/03/26 03:45:58;;;;;;;42.90;22.50;;;;;;;-1.30;100.00;98260.48;273889;1275;22329;-84
2024/03/26 03:52:21;;;;;;;40.10;22.60;;;;;;;-1.34;100.00;98263.13;273872;1270;23156;-84
2024/03/26 03:58:24;;;;;;;37.20;19.00;;;;;;;-1.37;100.00;98270.91;273548;1272;22560;-85
2024/03/26 04:05:10;;;;;;;45.00;23.30;;;;;;;-1.38;100.00;98271.27;273524;1260;22239;-85
2024/03/26 04:11:37;;;;;;;38.60;21.30;;;;;;;-1.45;100.00;98268.69;273154;1269;22302;-84
2024/03/26 04:17:38;;;;;;;;;;;;;;;-1.51;100.00;98275.60;273775;1272;22406;-85
2024/03/26 04:23:43;;;;;;;41.40;22.00;;;;;;;-1.54;100.00;98277.80;273846;1273;22298;-84
2024/03/26 04:30:04;;;;;;;43.10;22.40;;;;;;;-1.64;100.00;98277.30;273970;1276;22276;-84
2024/03/26 04:36:09;;;;;;;42.00;22.20;;;;;;;-1.74;100.00;98271.57;273844;1272;22727;-84
2024/03/26 04:42:20;;;;;;;30.30;17.80;;;;;;;-1.78;100.00;98264.65;271921;1269;22246;-83
2024/03/26 04:48:43;;;;;;;33.50;19.80;;;;;;;-1.80;100.00;98266.38;273602;1276;22280;-85
2024/03/26 04:54:47;;;;;;;44.70;24.00;;;;;;;-1.80;100.00;98270.94;273739;1272;22268;-85
2024/03/26 05:01:17;;;;;;;44.50;23.40;;;;;;;-1.77;100.00;98266.73;273512;1270;22233;-85
2024/03/26 05:08:03;;;;;;;38.90;20.90;;;;;;;-1.73;100.00;98268.64;273821;1270;22223;-85
2024/03/26 05:21:30;;;;;;;48.10;23.20;;;;;;;-1.40;100.00;98271.16;272628;1269;24289;-86
2024/03/26 05:27:32;;;;;;;54.60;28.60;;;;;;;-1.00;100.00;98277.02;272151;1269;22355;-86
2024/03/26 05:33:42;;;;;;;53.00;29.30;;;;;;;-0.56;100.00;98278.26;272001;1269;22555;-86
2024/03/26 05:39:43;;;;;;;66.00;32.00;;;;;;;-0.19;100.00;98280.52;273155;1266;22370;-86
2024/03/26 05:45:48;;;;;;;80.00;37.30;;;;;;;0.34;100.00;98278.40;273202;1269;22976;-85
2024/03/26 05:51:51;;;;;;;71.70;35.60;;;;;;;0.89;100.00;98274.69;273484;1269;22260;-85
2024/03/26 06:05:28;;;;;;;63.50;32.10;;;;;;;1.89;100.00;98272.45;273101;1270;23106;-85
2024/03/26 06:11:30;;;;;;;66.70;30.80;;;;;;;2.42;100.00;98268.86;273804;1268;23392;-85
2024/03/26 06:18:37;;;;;;;71.80;34.70;;;;;;;2.96;100.00;98265.56;273843;1270;22311;-87
2024/03/26 06:24:41;;;;;;;44.60;24.80;;;;;;;3.46;100.00;98264.95;273942;1273;22931;-87
2024/03/26 06:38:34;;;;;;;33.30;19.20;;;;;;;3.91;100.00;98257.58;273752;1276;23052;-88
2024/03/26 06:44:44;;;;;;;30.20;17.70;;;;;;;4.30;100.00;98251.17;273802;1276;22310;-89
2024/03/26 06:50:47;;;;;;;26.30;16.60;;;;;;;4.75;100.00;98255.62;272157;1268;23232;-90
2024/03/26 06:56:52;;;;;;;35.80;16.90;;;;;;;5.08;100.00;98261.14;272315;1269;23273;-89
2024/03/26 07:03:11;;;;;;;28.30;13.80;;;;;;;5.52;100.00;98258.91;272013;1268;23235;-90
2024/03/26 07:09:30;;;;;;;11.00;6.80;;;;;;;5.96;100.00;98265.02;272977;1269;22283;-90
2024/03/26 07:15:47;;;;;;;9.90;6.40;;;;;;;6.22;100.00;98265.92;273212;1269;23247;-88
2024/03/26 07:22:02;;;;;;;6.10;4.50;;;;;;;6.45;100.00;98267.95;273340;1269;22515;-88
2024/03/26 07:28:23;;;;;;;7.10;4.30;;;;;;;6.62;100.00;98263.99;272956;1268;22025;-89
2024/03/26 07:34:26;;;;;;;8.50;5.40;;;;;;;6.86;100.00;98263.58;272381;1268;22505;-89
2024/03/26 07:40:41;;;;;;;5.60;4.10;;;;;;;7.20;100.00;98259.90;273191;1269;22355;-92
2024/03/26 07:46:56;;;;;;;8.00;4.80;;;;;;;7.43;100.00;98253.19;273170;1269;22247;-90
2024/03/26 07:53:02;;;;;;;9.50;5.30;;;;;;;7.74;100.00;98250.55;272937;1269;22539;-91
2024/03/26 07:59:13;;;;;;;8.40;5.50;;;;;;;7.98;99.96;98239.58;273069;1268;23445;-90
2024/03/26 08:05:40;;;;;;;;;;;;;;;;;;;;;
2024/03/26 08:12:35;;;;;;;7.90;4.80;;;;;;;8.53;95.23;98227.83;272619;1269;23793;-91
2024/03/26 08:19:06;;;;;;;5.60;3.70;;;;;;;8.91;94.68;98223.61;273167;1268;23092;-88
2024/03/26 08:25:32;;;;;;;8.60;4.60;;;;;;;9.36;93.60;98214.85;273069;1269;22320;-91
2024/03/26 08:31:36;;;;;;;7.30;4.10;;;;;;;9.74;92.68;98205.89;272476;1269;22558;-90
2024/03/26 08:37:38;;;;;;;8.10;4.40;;;;;;;10.13;92.92;98206.34;272916;1268;22668;-90
2024/03/26 08:43:40;;;;;;;5.20;3.30;;;;;;;10.34;90.62;98199.40;273241;1269;22384;-91
2024/03/26 08:49:42;;;;;;;5.80;3.30;;;;;;;10.54;87.57;98191.86;273007;1268;22465;-91
2024/03/26 08:55:43;;;;;;;5.60;3.20;;;;;;;10.87;85.66;98192.33;273019;1269;22337;-90
2024/03/26 09:01:52;;;;;;;6.70;3.50;;;;;;;11.15;83.83;98191.38;273227;1269;23339;-90
2024/03/26 09:07:54;;;;;;;4.40;2.60;;;;;;;11.52;83.94;98179.39;273098;1268;23386;-91
2024/03/26 09:14:00;;;;;;;4.40;2.30;;;;;;;12.06;77.62;98177.16;272888;1269;23148;-91
2024/03/26 09:20:31;;;;;;;3.30;2.10;;;;;;;12.55;75.57;98174.92;272758;1267;23726;-91
2024/03/26 09:26:33;;;;;;;3.70;2.20;;;;;;;13.16;70.88;98172.23;272925;1269;22432;-89
2024/03/26 09:32:35;;;;;;;4.50;2.50;;;;;;;13.35;66.26;98166.88;273194;1269;22335;-91
2024/03/26 09:38:39;;;;;;;5.40;1.70;;;;;;;13.68;62.17;98160.23;272966;1268;23300;-90
2024/03/26 09:44:49;;;;;;;4.00;1.90;;;;;;;13.99;59.09;98154.80;272980;1266;22243;-90
2024/03/26 09:50:54;;;;;;;3.80;2.20;;;;;;;14.52;57.63;98145.20;272094;1269;22661;-91
2024/03/26 09:56:56;;;;;;;3.10;2.00;;;;;;;14.80;55.73;98138.27;272832;1267;23336;-88
2024/03/26 10:03:01;;;;;;;3.30;2.10;;;;;;;15.14;56.29;98134.61;271355;1269;22562;-90
2024/03/26 10:09:03;;;;;;;3.90;1.70;;;;;;;15.29;56.54;98131.95;271101;1268;25429;-90
2024/03/26 10:15:07;;;;;;;2.90;2.00;;;;;;;15.76;55.78;98125.55;270476;1269;22576;-90
2024/03/26 10:21:09;;;;;;;2.40;2.00;;;;;;;15.80;52.28;98122.69;272971;1269;22337;-90
2024/03/26 10:27:11;;;;;;;3.90;2.20;;;;;;;16.01;52.79;98125.20;273289;1268;22348;-92
2024/03/26 10:33:13;;;;;;;3.70;2.40;;;;;;;16.55;53.62;98125.40;272984;1267;22367;-90
2024/03/26 10:39:19;;;;;;;3.60;2.50;;;;;;;16.78;51.28;98120.92;272966;1268;23109;-91
2024/03/26 10:45:24;;;;;;;2.90;2.00;;;;;;;16.89;50.21;98116.11;273008;1268;22966;-91
2024/03/26 10:51:32;;;;;;;3.50;2.20;;;;;;;17.13;50.08;98104.36;272997;1267;23534;-92
2024/03/26 10:57:39;;;;;;;4.20;2.50;;;;;;;17.66;49.95;98101.73;273126;1269;22465;-92
2024/03/26 11:03:43;;;;;;;2.70;2.20;;;;;;;17.61;47.30;98093.27;273219;1269;23119;-91
2024/03/26 11:09:45;;;;;;;3.30;1.80;;;;;;;17.57;45.77;98083.48;273087;1269;22482;-92
2024/03/26 11:15:49;;;;;;;2.10;1.70;;;;;;;17.71;45.86;98074.73;273101;1269;22270;-91
2024/03/26 11:21:55;;;;;;;3.00;1.90;;;;;;;18.00;46.02;98066.31;273011;1269;22309;-90
2024/03/26 11:28:01;;;;;;;2.60;1.80;;;;;;;17.98;45.14;98060.23;273049;1268;22352;-90
2024/03/26 11:34:03;;;;;;;3.10;2.00;;;;;;;17.80;45.61;98053.45;272579;1260;22355;-92
2024/03/26 11:40:08;;;;;;;3.50;1.60;;;;;;;17.67;44.38;98047.70;273036;1269;22945;-89
2024/03/26 11:46:15;;;;;;;2.20;1.80;;;;;;;16.79;42.20;98046.34;272728;1268;23260;-91
2024/03/26 11:52:19;;;;;;;2.20;1.10;;;;;;;16.68;41.66;98038.30;272762;1269;22257;-88
2024/03/26 11:58:26;;;;;;;2.40;1.30;;;;;;;16.80;41.50;98027.44;273193;1266;22297;-88
2024/03/26 12:04:28;;;;;;;;;;;;;;;16.67;40.25;98017.95;272853;1268;23836;-89
2024/03/26 12:10:29;;;;;;;2.40;1.70;;;;;;;16.44;39.02;98008.65;272856;1268;22641;-88
2024/03/26 12:16:31;;;;;;;2.30;1.30;;;;;;;16.14;38.76;98001.10;272722;1259;22441;-88
2024/03/26 12:22:43;;;;;;;2.70;1.50;;;;;;;15.86;39.40;97990.09;273128;1269;22248;-91
2024/03/26 12:28:51;;;;;;;2.70;1.40;;;;;;;15.89;40.02;97969.12;271781;1269;22449;-87
2024/03/26 12:34:59;;;;;;;3.50;1.50;;;;;;;15.98;38.76;97955.32;271610;1267;23196;-90
2024/03/26 12:41:01;;;;;;;2.30;1.20;;;;;;;15.76;38.99;97943.20;272676;1269;357028;-88
2024/03/26 12:47:03;;;;;;;3.00;1.50;;;;;;;15.78;39.62;97931.34;273069;1269;22254;-89
2024/03/26 12:53:07;;;;;;;1.90;1.30;;;;;;;15.91;39.42;97928.77;272365;1269;23253;-89
2024/03/26 12:59:16;;;;;;;3.90;1.30;;;;;;;15.92;39.95;97923.23;272920;1257;22261;-88
2024/03/26 13:05:19;;;;;;;2.60;1.70;;;;;;;15.74;40.11;97921.98;272969;1269;22424;-88
2024/03/26 13:11:21;;;;;;;1.10;1.00;;;;;;;15.40;40.05;97917.16;272278;1269;23379;-87
2024/03/26 13:17:22;;;;;;;3.40;1.30;;;;;;;15.21;40.27;97908.33;271808;1269;22259;-89
2024/03/26 13:23:27;;;;;;;1.70;1.00;;;;;;;15.19;40.24;97900.20;270908;1269;23760;-87
2024/03/26 13:29:32;;;;;;;2.00;0.80;;;;;;;14.89;40.11;97884.61;272633;1268;22392;-85
2024/03/26 13:35:39;;;;;;;2.10;0.90;;;;;;;15.02;40.21;97875.95;272920;1269;22776;-88
2024/03/26 13:41:40;;;;;;;1.60;1.00;;;;;;;14.97;40.15;97869.46;273055;1268;22372;-89
2024/03/26 13:48:17;;;;;;;1.90;1.00;;;;;;;14.93;40.83;97863.27;271488;1270;22297;-88
2024/03/26 13:54:23;;;;;;;2.50;1.10;;;;;;;15.16;40.20;97848.44;272754;1268;23248;-88
2024/03/26 14:00:27;;;;;;;1.90;1.00;;;;;;;15.33;39.78;97839.96;272638;1269;23306;-89
2024/03/26 14:06:33;;;;;;;1.70;1.30;;;;;;;15.38;39.33;97834.73;272287;1260;23000;-88
2024/03/26 14:12:35;;;;;;;2.60;1.20;;;;;;;15.30;38.37;97826.74;272916;1269;22346;-91
2024/03/26 14:18:37;;;;;;;2.10;1.10;;;;;;;15.24;38.90;97817.70;272851;1269;22398;-89
2024/03/26 14:24:53;;;;;;;2.60;1.10;;;;;;;15.33;38.80;97810.26;272830;1268;23581;-88
2024/03/26 14:31:04;;;;;;;1.90;1.30;;;;;;;15.34;38.90;97800.06;273001;1269;22387;-88
2024/03/26 14:37:24;;;;;;;1.90;0.90;;;;;;;15.26;38.50;97775.24;272802;1269;22484;-91
2024/03/26 14:43:28;;;;;;;1.30;1.00;;;;;;;15.20;37.55;97761.60;272776;1269;24159;-86
2024/03/26 14:49:44;;;;;;;;;;;;;;;;;;;;;
2024/03/26 14:55:52;;;;;;;1.70;1.10;;;;;;;15.02;38.17;97750.83;273023;1267;23164;-88
2024/03/26 15:01:54;;;;;;;1.90;1.30;;;;;;;14.97;38.31;97743.34;270954;1269;22595;-88
2024/03/26 15:07:59;;;;;;;2.00;1.00;;;;;;;14.84;38.30;97736.98;272169;1268;22541;-87
2024/03/26 15:14:07;;;;;;;1.70;1.00;;;;;;;14.63;38.52;97731.48;271892;1269;23417;-89
2024/03/26 15:20:25;;;;;;;;;;;;;;;14.48;38.33;97719.18;272503;1269;22635;-90
2024/03/26 15:31:58;;;;;;;1.80;1.30;;;;;;;14.31;39.07;97714.02;272251;1269;23686;-90
2024/03/26 15:33:40;;;;;;;2.80;1.30;;;;;;;14.07;40.04;97697.63;272370;1268;23444;-89
2024/03/26 15:40:24;;;;;;;2.90;1.60;;;;;;;13.99;40.90;97693.66;273049;1265;22255;-89
2024/03/26 15:47:18;;;;;;;;;;;;;;;;;;;;;
2024/03/26 15:54:06;;;;;;;3.90;1.80;;;;;;;13.91;41.74;97691.26;273004;1269;22530;-89
2024/03/26 16:00:35;;;;;;;2.30;1.20;;;;;;;13.84;41.89;97684.48;272134;1268;22362;-88
2024/03/26 16:06:42;;;;;;;2.30;1.20;;;;;;;13.68;42.36;97678.08;272377;1268;22619;-87
2024/03/26 16:13:01;;;;;;;;;;;;;;;;;;;;;
2024/03/26 16:19:54;;;;;;;6.90;1.60;;;;;;;13.30;42.92;97679.87;272912;1268;23128;-88
2024/03/26 16:26:19;;;;;;;5.40;1.80;;;;;;;13.08;43.26;97676.22;272947;1268;22726;-88
2024/03/26 16:32:26;;;;;;;4.00;1.90;;;;;;;12.86;43.71;97676.79;273116;1268;23545;-88
2024/03/26 16:38:34;;;;;;;4.30;1.80;;;;;;;12.67;43.96;97675.25;273076;1269;22387;-87
2024/03/26 16:45:16;;;;;;;3.20;1.80;;;;;;;12.52;43.93;97681.23;273223;1268;22293;-89
2024/03/26 16:51:27;;;;;;;3.80;2.50;;;;;;;12.31;44.46;97679.40;272992;1269;23198;-88
2024/03/26 16:57:33;;;;;;;4.20;2.40;;;;;;;12.11;44.84;97674.16;273367;1269;22290;-86
2024/03/26 17:04:15;;;;;;;3.80;2.00;;;;;;;11.93;45.13;97672.26;272661;1269;23949;-89
2024/03/26 17:10:39;;;;;;;6.00;3.20;;;;;;;11.74;45.56;97670.59;272207;1269;22503;-88
2024/03/26 17:17:36;;;;;;;;;;;;;;;;;;;;;
2024/03/26 17:23:53;;;;;;;8.00;3.70;;;;;;;11.32;46.36;97665.02;272827;1269;24294;-87
2024/03/26 17:29:57;;;;;;;10.90;5.10;;;;;;;11.17;46.67;97663.04;272820;1268;22545;-87
2024/03/26 17:35:59;;;;;;;8.80;3.80;;;;;;;11.03;47.01;97668.92;273153;1269;22392;-88
2024/03/26 17:42:03;;;;;;;13.70;5.40;;;;;;;10.91;47.26;97673.75;273020;1268;23693;-89
2024/03/26 17:48:09;;;;;;;10.10;5.10;;;;;;;10.80;47.71;97669.41;273003;1269;22601;-89
2024/03/26 17:54:11;;;;;;;12.70;5.90;;;;;;;10.70;48.16;97671.17;272924;1269;22433;-87
2024/03/26 18:00:23;;;;;;;14.90;7.20;;;;;;;10.59;48.64;97672.14;272976;1269;23164;-87
2024/03/26 18:06:38;;;;;;;13.90;7.00;;;;;;;10.48;48.98;97666.92;273035;1269;22382;-86
2024/03/26 18:12:47;;;;;;;15.20;6.60;;;;;;;10.35;49.24;97673.69;272658;1269;23460;-87
2024/03/26 18:18:49;;;;;;;14.20;6.00;;;;;;;10.26;49.74;97675.42;272865;1269;22643;-86
2024/03/26 18:24:53;;;;;;;12.10;6.00;;;;;;;10.22;50.13;97676.40;272945;1269;23159;-86
2024/03/26 18:30:56;;;;;;;10.70;5.50;;;;;;;10.20;50.45;97674.45;273072;1269;23466;-86
2024/03/26 18:36:57;;;;;;;19.20;9.20;;;;;;;10.19;50.78;97671.41;272749;1268;23265;-86
2024/03/26 18:43:00;;;;;;;10.90;6.10;;;;;;;10.21;50.93;97663.83;272563;1269;22451;-87
2024/03/26 18:49:03;;;;;;;10.90;5.50;;;;;;;10.16;51.09;97661.36;273182;1269;22362;-87
2024/03/26 18:55:07;;;;;;;12.30;6.00;;;;;;;10.07;51.34;97659.86;272907;1269;23269;-87
2024/03/26 19:01:12;;;;;;;12.50;6.70;;;;;;;9.95;51.67;97650.18;272351;1268;22554;-87
2024/03/26 19:07:14;;;;;;;13.90;7.80;;;;;;;9.81;52.01;97653.56;271190;1269;22539;-87
2024/03/26 19:13:19;;;;;;;12.70;6.90;;;;;;;9.66;52.44;97656.17;271357;1269;22344;-87
2024/03/26 19:19:22;;;;;;;14.60;7.50;;;;;;;9.55;52.82;97647.19;273205;1269;23141;-87
2024/03/26 19:25:26;;;;;;;20.80;9.90;;;;;;;9.44;53.11;97644.99;272891;1269;22969;-88
2024/03/26 19:31:35;;;;;;;20.00;10.30;;;;;;;9.23;53.31;97640.48;271501;1268;22277;-87
2024/03/26 19:37:44;;;;;;;19.80;8.20;;;;;;;9.00;53.64;97644.13;272831;1269;22577;-87
2024/03/26 19:43:51;;;;;;;18.50;8.80;;;;;;;8.88;53.84;97647.84;273179;1269;22319;-87
2024/03/26 19:49:53;;;;;;;27.30;13.70;;;;;;;8.70;54.42;97643.38;273083;1269;23658;-86
2024/03/26 19:56:07;;;;;;;33.10;16.10;;;;;;;8.46;54.91;97643.28;272653;1269;22622;-87
2024/03/26 20:02:09;;;;;;;31.80;15.10;;;;;;;8.33;55.20;97639.34;273017;1268;22556;-87
2024/03/26 20:08:11;;;;;;;35.10;15.90;;;;;;;8.25;55.43;97633.82;271615;1269;22372;-88
2024/03/26 20:14:13;;;;;;;31.90;16.10;;;;;;;8.08;55.87;97628.04;272480;1267;22654;-88
2024/03/26 20:20:15;;;;;;;28.20;13.80;;;;;;;7.87;56.31;97619.02;272519;1259;22244;-88
2024/03/26 20:26:19;;;;;;;23.70;11.30;;;;;;;7.75;56.41;97617.47;270032;1269;22760;-88
2024/03/26 20:32:24;;;;;;;22.50;11.30;;;;;;;7.68;56.79;97616.23;271236;1255;23358;-87
2024/03/26 20:38:27;;;;;;;26.80;10.70;;;;;;;7.66;57.18;97616.15;273022;1269;22407;-87
2024/03/26 20:44:32;;;;;;;20.20;9.30;;;;;;;7.58;57.50;97612.17;272931;1268;22307;-87
2024/03/26 20:50:42;;;;;;;17.50;8.70;;;;;;;7.48;57.73;97606.80;272786;1269;22247;-89
2024/03/26 20:56:50;;;;;;;19.60;8.60;;;;;;;7.39;57.98;97611.60;272963;1268;22266;-88
2024/03/26 21:02:55;;;;;;;;;;;;;;;7.18;58.24;97610.46;273035;1269;22495;-87
2024/03/26 21:08:59;;;;;;;22.60;11.50;;;;;;;6.82;59.48;97611.52;265351;1269;10001485;-87
2024/03/26 21:15:10;;;;;;;22.60;12.10;;;;;;;6.43;60.06;97607.15;272986;1269;22262;-90
2024/03/26 21:21:17;;;;;;;25.30;12.70;;;;;;;6.08;60.88;97606.26;272854;1269;22283;-87
2024/03/26 21:27:19;;;;;;;56.70;20.50;;;;;;;5.88;61.76;97597.81;273247;1269;23565;-88
2024/03/26 21:33:20;;;;;;;36.00;16.40;;;;;;;5.69;62.37;97591.20;273230;1269;22406;-88
2024/03/26 21:39:22;;;;;;;24.40;12.20;;;;;;;5.48;62.90;97585.13;271440;1269;25467;-89
2024/03/26 21:45:24;;;;;;;28.20;13.70;;;;;;;5.39;63.20;97577.15;270597;1269;22567;-87
2024/03/26 21:51:26;;;;;;;26.00;13.70;;;;;;;5.32;63.90;97575.70;271042;1269;22357;-88
2024/03/26 21:57:27;;;;;;;29.10;14.10;;;;;;;5.25;64.68;97573.46;273061;1269;22565;-88
2024/03/26 22:03:29;;;;;;;29.00;12.90;;;;;;;5.17;65.03;97567.34;273219;1269;22304;-87
2024/03/26 22:09:31;;;;;;;19.00;9.20;;;;;;;5.10;65.21;97571.75;270196;1269;22267;-87
2024/03/26 22:15:38;;;;;;;14.60;7.50;;;;;;;5.27;65.62;97565.88;270744;1268;22378;-87
2024/03/26 22:21:57;;;;;;;16.20;7.20;;;;;;;5.60;65.44;97576.94;271746;1269;22259;-87
2024/03/26 22:28:18;;;;;;;13.20;7.40;;;;;;;5.88;64.95;97575.38;271596;1269;23568;-87
2024/03/26 22:34:21;;;;;;;17.00;7.60;;;;;;;6.09;64.85;97570.09;273242;1269;23494;-92
2024/03/26 22:40:23;;;;;;;14.40;6.60;;;;;;;6.19;64.66;97568.75;273120;1269;22275;-88
2024/03/26 22:46:28;;;;;;;18.40;8.40;;;;;;;6.16;64.77;97567.42;272940;1269;22349;-88
2024/03/26 22:52:46;;;;;;;19.10;9.20;;;;;;;5.76;65.03;97561.70;272989;1269;22227;-88
2024/03/26 22:59:03;;;;;;;20.20;9.20;;;;;;;5.42;66.10;97559.26;272904;1269;22447;-89
2024/03/26 23:05:26;;;;;;;20.30;9.60;;;;;;;5.17;66.91;97561.84;273049;1269;23022;-90
2024/03/26 23:11:42;;;;;;;17.30;8.20;;;;;;;4.98;67.49;97560.73;270783;1269;22538;-87
2024/03/26 23:17:44;;;;;;;13.20;5.10;;;;;;;4.99;67.47;97553.75;272783;1269;22429;-86
2024/03/26 23:24:09;;;;;;;11.10;3.60;;;;;;;5.46;66.63;97551.92;272998;1269;22249;-87
2024/03/26 23:30:12;;;;;;;8.50;4.00;;;;;;;6.18;65.57;97554.84;273128;1269;22477;-88
2024/03/26 23:36:27;;;;;;;9.50;3.90;;;;;;;6.76;64.50;97546.94;272999;1269;22358;-88
2024/03/26 23:42:45;;;;;;;9.30;4.70;;;;;;;6.97;64.14;97539.84;273227;1269;22466;-87
2024/03/26 23:48:56;;;;;;;11.80;4.90;;;;;;;7.02;63.59;97534.02;272957;1269;22236;-89
2024/03/26 23:54:58;;;;;;;10.80;5.10;;;;;;;6.98;63.53;97526.79;273198;1264;22428;-87
